sensor_id;sensor_type;location;lat;lon;timestamp;P1;durP1;ratioP1;P2;durP2;ratioP2
51523;SDS011;37610;51.790;21.590;2023-02-11T00:01:47;52.40;;;22.40;;
51523;SDS011;37610;51.790;21.590;2023-02-11T00:05:58;55.10;;;23.90;;
51523;SDS011;37610;51.790;21.590;2023-02-11T00:10:01;55.20;;;23.00;;
51523;SDS011;37610;51.790;21.590;2023-02-11T00:14:08;53.50;;;21.40;;
51523;SDS011;37610;51.790;21.590;2023-02-11T00:18:11;60.60;;;25.30;;
51523;SDS011;37610;51.790;21.590;2023-02-11T00:22:12;53.20;;;24.00;;
51523;SDS011;37610;51.790;21.590;2023-02-11T00:30:15;54.40;;;21.80;;
51523;SDS011;37610;51.790;21.590;2023-02-11T00:34:16;56.50;;;22.30;;
51523;SDS011;37610;51.790;21.590;2023-02-11T00:38:18;49.80;;;21.50;;
51523;SDS011;37610;51.790;21.590;2023-02-11T00:42:19;50.00;;;21.50;;
51523;SDS011;37610;51.790;21.590;2023-02-11T00:46:21;46.00;;;20.60;;
51523;SDS011;37610;51.790;21.590;2023-02-11T00:50:23;35.00;;;16.50;;
51523;SDS011;37610;51.790;21.590;2023-02-11T00:54:24;56.70;;;23.70;;
51523;SDS011;37610;51.790;21.590;2023-02-11T00:58:26;46.10;;;20.70;;
51523;SDS011;37610;51.790;21.590;2023-02-11T01:02:27;44.40;;;18.40;;
51523;SDS011;37610;51.790;21.590;2023-02-11T01:06:29;45.40;;;18.80;;
51523;SDS011;37610;51.790;21.590;2023-02-11T01:10:30;45.40;;;18.80;;
51523;SDS011;37610;51.790;21.590;2023-02-11T01:14:32;41.40;;;15.90;;
51523;SDS011;37610;51.790;21.590;2023-02-11T01:18:33;42.50;;;17.50;;
51523;SDS011;37610;51.790;21.590;2023-02-11T01:22:35;34.90;;;15.50;;
51523;SDS011;37610;51.790;21.590;2023-02-11T01:26:39;36.50;;;16.20;;
51523;SDS011;37610;51.790;21.590;2023-02-11T01:30:41;38.50;;;14.80;;
51523;SDS011;37610;51.790;21.590;2023-02-11T01:34:42;36.70;;;16.00;;
51523;SDS011;37610;51.790;21.590;2023-02-11T01:38:43;34.70;;;14.60;;
51523;SDS011;37610;51.790;21.590;2023-02-11T01:42:45;34.80;;;15.30;;
51523;SDS011;37610;51.790;21.590;2023-02-11T01:46:47;37.40;;;15.90;;
51523;SDS011;37610;51.790;21.590;2023-02-11T01:50:49;33.30;;;13.30;;
51523;SDS011;37610;51.790;21.590;2023-02-11T01:55:02;31.70;;;14.00;;
51523;SDS011;37610;51.790;21.590;2023-02-11T01:59:43;37.40;;;16.10;;
51523;SDS011;37610;51.790;21.590;2023-02-11T02:03:45;34.40;;;15.60;;
51523;SDS011;37610;51.790;21.590;2023-02-11T02:07:53;33.50;;;14.00;;
51523;SDS011;37610;51.790;21.590;2023-02-11T02:11:56;33.60;;;14.50;;
51523;SDS011;37610;51.790;21.590;2023-02-11T02:16:01;35.60;;;13.00;;
51523;SDS011;37610;51.790;21.590;2023-02-11T02:20:14;28.40;;;12.60;;
51523;SDS011;37610;51.790;21.590;2023-02-11T02:45:04;31.10;;;12.80;;
51523;SDS011;37610;51.790;21.590;2023-02-11T02:49:14;34.20;;;13.60;;
51523;SDS011;37610;51.790;21.590;2023-02-11T03:01:59;23.40;;;10.30;;
51523;SDS011;37610;51.790;21.590;2023-02-11T03:06:07;32.30;;;13.30;;
51523;SDS011;37610;51.790;21.590;2023-02-11T03:10:16;28.00;;;11.70;;
51523;SDS011;37610;51.790;21.590;2023-02-11T03:14:19;28.50;;;12.30;;
51523;SDS011;37610;51.790;21.590;2023-02-11T03:18:23;27.20;;;11.70;;
51523;SDS011;37610;51.790;21.590;2023-02-11T03:22:26;40.00;;;16.20;;
51523;SDS011;37610;51.790;21.590;2023-02-11T03:26:33;24.70;;;11.30;;
51523;SDS011;37610;51.790;21.590;2023-02-11T03:30:46;27.80;;;12.20;;
51523;SDS011;37610;51.790;21.590;2023-02-11T03:39:00;26.00;;;10.70;;
51523;SDS011;37610;51.790;21.590;2023-02-11T03:47:35;18.90;;;8.80;;
51523;SDS011;37610;51.790;21.590;2023-02-11T03:51:37;20.70;;;9.70;;
51523;SDS011;37610;51.790;21.590;2023-02-11T03:55:39;20.80;;;9.10;;
51523;SDS011;37610;51.790;21.590;2023-02-11T04:00:16;29.90;;;9.20;;
51523;SDS011;37610;51.790;21.590;2023-02-11T04:04:10;23.50;;;8.80;;
51523;SDS011;37610;51.790;21.590;2023-02-11T04:08:12;22.60;;;8.60;;
51523;SDS011;37610;51.790;21.590;2023-02-11T04:12:13;22.20;;;8.40;;
51523;SDS011;37610;51.790;21.590;2023-02-11T04:16:15;24.50;;;11.00;;
51523;SDS011;37610;51.790;21.590;2023-02-11T04:20:16;27.80;;;10.80;;
51523;SDS011;37610;51.790;21.590;2023-02-11T04:24:18;20.90;;;9.40;;
51523;SDS011;37610;51.790;21.590;2023-02-11T04:28:19;19.40;;;9.00;;
51523;SDS011;37610;51.790;21.590;2023-02-11T04:32:20;29.50;;;10.50;;
51523;SDS011;37610;51.790;21.590;2023-02-11T04:36:22;26.80;;;10.50;;
51523;SDS011;37610;51.790;21.590;2023-02-11T04:40:23;22.20;;;9.20;;
51523;SDS011;37610;51.790;21.590;2023-02-11T04:44:25;25.50;;;11.20;;
51523;SDS011;37610;51.790;21.590;2023-02-11T04:48:26;21.40;;;9.80;;
51523;SDS011;37610;51.790;21.590;2023-02-11T04:52:28;23.80;;;10.50;;
51523;SDS011;37610;51.790;21.590;2023-02-11T04:56:29;27.60;;;10.20;;
51523;SDS011;37610;51.790;21.590;2023-02-11T05:00:31;20.30;;;8.90;;
51523;SDS011;37610;51.790;21.590;2023-02-11T05:04:32;22.30;;;9.50;;
51523;SDS011;37610;51.790;21.590;2023-02-11T05:08:33;28.40;;;10.40;;
51523;SDS011;37610;51.790;21.590;2023-02-11T05:12:35;23.60;;;11.10;;
51523;SDS011;37610;51.790;21.590;2023-02-11T05:16:36;25.70;;;10.30;;
51523;SDS011;37610;51.790;21.590;2023-02-11T05:20:38;25.90;;;11.00;;
51523;SDS011;37610;51.790;21.590;2023-02-11T05:24:39;23.30;;;10.70;;
51523;SDS011;37610;51.790;21.590;2023-02-11T05:28:41;23.10;;;10.90;;
51523;SDS011;37610;51.790;21.590;2023-02-11T05:32:43;27.10;;;11.90;;
51523;SDS011;37610;51.790;21.590;2023-02-11T05:36:44;30.00;;;13.20;;
51523;SDS011;37610;51.790;21.590;2023-02-11T05:40:46;27.90;;;11.80;;
51523;SDS011;37610;51.790;21.590;2023-02-11T05:44:47;32.90;;;14.00;;
51523;SDS011;37610;51.790;21.590;2023-02-11T05:48:48;30.00;;;12.50;;
51523;SDS011;37610;51.790;21.590;2023-02-11T05:52:50;36.70;;;14.30;;
51523;SDS011;37610;51.790;21.590;2023-02-11T05:56:51;30.90;;;12.90;;
51523;SDS011;37610;51.790;21.590;2023-02-11T06:00:53;29.10;;;14.00;;
51523;SDS011;37610;51.790;21.590;2023-02-11T06:04:54;28.80;;;13.30;;
51523;SDS011;37610;51.790;21.590;2023-02-11T06:08:55;35.70;;;15.50;;
51523;SDS011;37610;51.790;21.590;2023-02-11T06:12:57;28.70;;;13.50;;
51523;SDS011;37610;51.790;21.590;2023-02-11T06:16:58;26.90;;;14.20;;
51523;SDS011;37610;51.790;21.590;2023-02-11T06:21:00;35.80;;;15.10;;
51523;SDS011;37610;51.790;21.590;2023-02-11T06:25:02;33.60;;;15.90;;
51523;SDS011;37610;51.790;21.590;2023-02-11T06:29:03;34.60;;;15.40;;
51523;SDS011;37610;51.790;21.590;2023-02-11T06:33:05;40.60;;;17.50;;
51523;SDS011;37610;51.790;21.590;2023-02-11T06:37:06;71.80;;;34.60;;
51523;SDS011;37610;51.790;21.590;2023-02-11T06:41:11;32.80;;;15.30;;
51523;SDS011;37610;51.790;21.590;2023-02-11T06:45:13;52.60;;;20.60;;
51523;SDS011;37610;51.790;21.590;2023-02-11T06:49:14;39.90;;;18.10;;
51523;SDS011;37610;51.790;21.590;2023-02-11T06:53:16;37.70;;;17.00;;
51523;SDS011;37610;51.790;21.590;2023-02-11T06:57:17;41.20;;;18.20;;
51523;SDS011;37610;51.790;21.590;2023-02-11T07:01:19;38.70;;;16.90;;
51523;SDS011;37610;51.790;21.590;2023-02-11T07:05:20;36.90;;;18.60;;
51523;SDS011;37610;51.790;21.590;2023-02-11T07:09:22;38.90;;;17.80;;
51523;SDS011;37610;51.790;21.590;2023-02-11T07:13:23;46.40;;;20.20;;
51523;SDS011;37610;51.790;21.590;2023-02-11T07:17:25;40.40;;;20.30;;
51523;SDS011;37610;51.790;21.590;2023-02-11T07:21:26;38.60;;;19.10;;
51523;SDS011;37610;51.790;21.590;2023-02-11T07:25:28;47.50;;;20.90;;
51523;SDS011;37610;51.790;21.590;2023-02-11T07:29:29;48.30;;;20.20;;
51523;SDS011;37610;51.790;21.590;2023-02-11T07:33:31;51.10;;;22.80;;
51523;SDS011;37610;51.790;21.590;2023-02-11T07:37:33;39.70;;;20.20;;
51523;SDS011;37610;51.790;21.590;2023-02-11T07:41:34;40.70;;;19.70;;
51523;SDS011;37610;51.790;21.590;2023-02-11T07:45:37;42.40;;;19.60;;
51523;SDS011;37610;51.790;21.590;2023-02-11T07:49:38;41.90;;;18.60;;
51523;SDS011;37610;51.790;21.590;2023-02-11T07:53:40;44.10;;;20.00;;
51523;SDS011;37610;51.790;21.590;2023-02-11T07:57:42;45.90;;;21.20;;
51523;SDS011;37610;51.790;21.590;2023-02-11T08:01:43;39.10;;;19.60;;
51523;SDS011;37610;51.790;21.590;2023-02-11T08:05:44;49.60;;;22.90;;
51523;SDS011;37610;51.790;21.590;2023-02-11T08:09:46;41.90;;;20.80;;
51523;SDS011;37610;51.790;21.590;2023-02-11T08:13:47;43.60;;;21.90;;
51523;SDS011;37610;51.790;21.590;2023-02-11T08:17:49;39.10;;;19.40;;
51523;SDS011;37610;51.790;21.590;2023-02-11T08:21:53;43.50;;;19.90;;
51523;SDS011;37610;51.790;21.590;2023-02-11T08:25:55;45.10;;;21.60;;
51523;SDS011;37610;51.790;21.590;2023-02-11T08:30:00;39.60;;;18.80;;
51523;SDS011;37610;51.790;21.590;2023-02-11T08:34:02;38.70;;;18.30;;
51523;SDS011;37610;51.790;21.590;2023-02-11T08:38:04;41.10;;;18.70;;
51523;SDS011;37610;51.790;21.590;2023-02-11T08:42:05;39.80;;;19.70;;
51523;SDS011;37610;51.790;21.590;2023-02-11T08:46:07;50.50;;;24.90;;
51523;SDS011;37610;51.790;21.590;2023-02-11T08:50:09;50.60;;;24.90;;
51523;SDS011;37610;51.790;21.590;2023-02-11T08:54:10;44.00;;;22.70;;
51523;SDS011;37610;51.790;21.590;2023-02-11T08:58:12;40.90;;;21.50;;
51523;SDS011;37610;51.790;21.590;2023-02-11T09:02:13;44.70;;;22.00;;
51523;SDS011;37610;51.790;21.590;2023-02-11T09:06:15;39.80;;;21.80;;
51523;SDS011;37610;51.790;21.590;2023-02-11T09:10:18;60.00;;;26.40;;
51523;SDS011;37610;51.790;21.590;2023-02-11T09:14:20;56.50;;;26.80;;
51523;SDS011;37610;51.790;21.590;2023-02-11T09:18:22;55.50;;;26.50;;
51523;SDS011;37610;51.790;21.590;2023-02-11T09:22:24;52.80;;;25.80;;
51523;SDS011;37610;51.790;21.590;2023-02-11T09:26:29;44.60;;;22.20;;
51523;SDS011;37610;51.790;21.590;2023-02-11T09:30:31;44.20;;;22.40;;
51523;SDS011;37610;51.790;21.590;2023-02-11T09:34:33;49.00;;;25.10;;
51523;SDS011;37610;51.790;21.590;2023-02-11T09:38:34;45.20;;;22.70;;
51523;SDS011;37610;51.790;21.590;2023-02-11T09:42:41;38.10;;;21.20;;
51523;SDS011;37610;51.790;21.590;2023-02-11T09:46:44;45.00;;;21.80;;
51523;SDS011;37610;51.790;21.590;2023-02-11T09:50:50;40.40;;;20.90;;
51523;SDS011;37610;51.790;21.590;2023-02-11T09:54:55;42.40;;;22.20;;
51523;SDS011;37610;51.790;21.590;2023-02-11T09:58:57;31.70;;;17.70;;
51523;SDS011;37610;51.790;21.590;2023-02-11T10:03:05;43.20;;;21.80;;
51523;SDS011;37610;51.790;21.590;2023-02-11T10:07:18;46.30;;;22.40;;
51523;SDS011;37610;51.790;21.590;2023-02-11T10:23:59;33.20;;;18.10;;
51523;SDS011;37610;51.790;21.590;2023-02-11T10:28:09;40.80;;;21.50;;
51523;SDS011;37610;51.790;21.590;2023-02-11T10:32:14;34.90;;;17.30;;
51523;SDS011;37610;51.790;21.590;2023-02-11T10:36:20;34.10;;;18.80;;
51523;SDS011;37610;51.790;21.590;2023-02-11T10:40:25;44.90;;;22.60;;
51523;SDS011;37610;51.790;21.590;2023-02-11T10:48:42;41.50;;;22.20;;
51523;SDS011;37610;51.790;21.590;2023-02-11T10:52:44;39.30;;;21.40;;
51523;SDS011;37610;51.790;21.590;2023-02-11T10:56:49;40.10;;;21.40;;
51523;SDS011;37610;51.790;21.590;2023-02-11T11:00:53;36.70;;;20.70;;
51523;SDS011;37610;51.790;21.590;2023-02-11T11:04:56;42.80;;;23.00;;
51523;SDS011;37610;51.790;21.590;2023-02-11T11:08:58;39.70;;;22.80;;
51523;SDS011;37610;51.790;21.590;2023-02-11T11:13:00;46.40;;;23.10;;
51523;SDS011;37610;51.790;21.590;2023-02-11T11:17:02;43.30;;;23.70;;
51523;SDS011;37610;51.790;21.590;2023-02-11T11:25:27;50.50;;;24.90;;
51523;SDS011;37610;51.790;21.590;2023-02-11T11:29:32;46.80;;;24.60;;
51523;SDS011;37610;51.790;21.590;2023-02-11T11:33:34;39.60;;;22.50;;
51523;SDS011;37610;51.790;21.590;2023-02-11T11:37:36;51.60;;;26.50;;
51523;SDS011;37610;51.790;21.590;2023-02-11T11:41:39;42.00;;;24.30;;
51523;SDS011;37610;51.790;21.590;2023-02-11T11:45:53;47.80;;;25.30;;
51523;SDS011;37610;51.790;21.590;2023-02-11T11:54:07;42.80;;;22.60;;
51523;SDS011;37610;51.790;21.590;2023-02-11T11:58:19;42.80;;;23.30;;
51523;SDS011;37610;51.790;21.590;2023-02-11T12:06:30;41.50;;;22.30;;
51523;SDS011;37610;51.790;21.590;2023-02-11T12:26:47;37.20;;;18.80;;
51523;SDS011;37610;51.790;21.590;2023-02-11T12:30:56;42.80;;;25.20;;
51523;SDS011;37610;51.790;21.590;2023-02-11T12:35:04;49.30;;;25.80;;
51523;SDS011;37610;51.790;21.590;2023-02-11T12:43:51;43.80;;;24.80;;
51523;SDS011;37610;51.790;21.590;2023-02-11T12:47:59;39.70;;;22.00;;
51523;SDS011;37610;51.790;21.590;2023-02-11T12:52:11;55.60;;;29.80;;
51523;SDS011;37610;51.790;21.590;2023-02-11T13:00:18;47.40;;;25.10;;
51523;SDS011;37610;51.790;21.590;2023-02-11T13:04:29;61.70;;;29.40;;
51523;SDS011;37610;51.790;21.590;2023-02-11T13:12:35;57.40;;;26.50;;
51523;SDS011;37610;51.790;21.590;2023-02-11T13:16:56;48.40;;;25.60;;
51523;SDS011;37610;51.790;21.590;2023-02-11T13:21:03;53.10;;;25.10;;
51523;SDS011;37610;51.790;21.590;2023-02-11T13:29:28;54.40;;;28.10;;
51523;SDS011;37610;51.790;21.590;2023-02-11T13:33:35;54.80;;;27.10;;
51523;SDS011;37610;51.790;21.590;2023-02-11T13:37:38;50.00;;;24.80;;
51523;SDS011;37610;51.790;21.590;2023-02-11T13:41:40;53.50;;;29.50;;
51523;SDS011;37610;51.790;21.590;2023-02-11T13:45:42;45.50;;;24.30;;
51523;SDS011;37610;51.790;21.590;2023-02-11T13:49:48;48.90;;;23.10;;
51523;SDS011;37610;51.790;21.590;2023-02-11T13:53:55;55.70;;;28.30;;
51523;SDS011;37610;51.790;21.590;2023-02-11T14:02:19;50.30;;;28.60;;
51523;SDS011;37610;51.790;21.590;2023-02-11T14:07:20;45.00;;;24.10;;
